createdAt,value
2022-08-28T00:00:54.302Z,100529.06
2022-08-28T00:02:58.630Z,100527.75
2022-08-28T00:05:02.883Z,100527.81
2022-08-28T00:07:05.967Z,100527.97
2022-08-28T00:09:08.980Z,100524.38
2022-08-28T00:11:14.322Z,100530.72
2022-08-28T00:13:21.273Z,100533.94
2022-08-28T00:15:26.970Z,100527.03
2022-08-28T00:17:29.818Z,100532.41
2022-08-28T00:19:36.665Z,100537.56
2022-08-28T00:21:42.834Z,100532.41
2022-08-28T00:23:45.467Z,100529.16
2022-08-28T00:25:48.570Z,100525.44
2022-08-28T00:27:54.929Z,100525.28
2022-08-28T00:29:58.119Z,100528.59
2022-08-28T00:32:01.317Z,100527.69
2022-08-28T00:34:04.238Z,100527.94
2022-08-28T00:36:07.523Z,100532.41
2022-08-28T00:38:12.848Z,100535.88
2022-08-28T00:40:18.395Z,100535.88
2022-08-28T00:42:34.432Z,100531.78
2022-08-28T00:44:37.833Z,100525.28
2022-08-28T00:46:42.687Z,100529.63
2022-08-28T00:48:45.588Z,100532.78
2022-08-28T00:51:05.891Z,100528.88
2022-08-28T00:53:08.792Z,100534.28
2022-08-28T00:55:17.718Z,100533.47
2022-08-28T00:57:26.941Z,100537.25
2022-08-28T00:59:30.105Z,100531.31
2022-08-28T01:01:33.415Z,100532.69
2022-08-28T01:03:37.528Z,100544.47
2022-08-28T01:05:43.444Z,100527.91
2022-08-28T01:07:47.686Z,100526.00
2022-08-28T01:09:53.367Z,100533.00
2022-08-28T01:12:01.944Z,100535.75
2022-08-28T01:14:05.552Z,100527.72
2022-08-28T01:16:09.972Z,100528.66
2022-08-28T01:18:15.531Z,100536.00
2022-08-28T01:20:22.079Z,100538.50
2022-08-28T01:22:31.852Z,100541.91
2022-08-28T01:24:38.861Z,100532.19
2022-08-28T01:26:41.772Z,100533.94
2022-08-28T01:28:45.157Z,100537.44
2022-08-28T01:30:49.274Z,100536.38
2022-08-28T01:32:54.988Z,100539.94
2022-08-28T01:34:57.970Z,100541.78
2022-08-28T01:37:01.248Z,100536.47
2022-08-28T01:39:10.218Z,100534.78
2022-08-28T01:41:14.919Z,100533.72
2022-08-28T01:43:21.072Z,100540.13
2022-08-28T01:45:25.741Z,100539.13
2022-08-28T01:47:28.487Z,100543.50
2022-08-28T01:49:31.415Z,100541.63
2022-08-28T01:51:35.213Z,100548.13
2022-08-28T01:53:42.268Z,100547.94
2022-08-28T01:55:48.131Z,100537.63
2022-08-28T01:57:54.922Z,100542.97
2022-08-28T01:59:57.742Z,100541.38
2022-08-28T02:02:01.246Z,100544.09
2022-08-28T02:04:06.118Z,100550.72
2022-08-28T02:06:08.941Z,100552.72
2022-08-28T02:08:11.909Z,100543.94
2022-08-28T02:10:14.989Z,100551.03
2022-08-28T02:12:17.837Z,100555.31
2022-08-28T02:14:22.563Z,100552.81
2022-08-28T02:16:25.945Z,100552.03
2022-08-28T02:18:28.963Z,100549.63
2022-08-28T02:20:32.135Z,100549.63
2022-08-28T02:22:36.528Z,100544.41
2022-08-28T02:24:40.199Z,100545.19
2022-08-28T02:26:42.994Z,100542.53
2022-08-28T02:28:46.048Z,100551.56
2022-08-28T02:30:50.259Z,100545.44
2022-08-28T02:32:53.845Z,100545.59
2022-08-28T02:34:56.933Z,100546.38
2022-08-28T02:36:59.715Z,100555.41
2022-08-28T02:39:02.666Z,100549.97
2022-08-28T02:41:05.561Z,100545.94
2022-08-28T02:43:08.363Z,100553.97
2022-08-28T02:45:12.345Z,100552.28
2022-08-28T02:47:16.604Z,100550.66
2022-08-28T02:49:19.616Z,100555.97
2022-08-28T02:51:22.584Z,100552.66
2022-08-28T02:53:25.389Z,100549.19
2022-08-28T02:55:32.441Z,100551.22
2022-08-28T02:57:36.990Z,100543.25
2022-08-28T02:59:39.813Z,100549.66
2022-08-28T03:01:42.725Z,100553.81
2022-08-28T03:03:47.011Z,100550.34
2022-08-28T03:05:49.861Z,100544.28
2022-08-28T03:07:54.323Z,100554.91
2022-08-28T03:09:57.302Z,100549.16
2022-08-28T03:12:00.163Z,100543.88
2022-08-28T03:14:03.522Z,100542.88
2022-08-28T03:16:06.534Z,100538.13
2022-08-28T03:18:11.367Z,100537.72
2022-08-28T03:20:16.945Z,100537.81
2022-08-28T03:22:41.808Z,100540.56
2022-08-28T03:24:46.511Z,100537.81
2022-08-28T03:26:49.336Z,100535.34
2022-08-28T03:28:55.857Z,100542.06
2022-08-28T03:30:59.899Z,100539.47
2022-08-28T03:33:01.873Z,100546.03
2022-08-28T03:35:06.224Z,100539.78
2022-08-28T03:37:10.357Z,100543.50
2022-08-28T03:39:13.772Z,100539.09
2022-08-28T03:41:19.830Z,100538.22
2022-08-28T03:43:24.460Z,100542.38
2022-08-28T03:45:27.289Z,100543.16
2022-08-28T03:47:30.120Z,100538.06
2022-08-28T03:49:33.170Z,100542.47
2022-08-28T03:51:36.500Z,100539.19
2022-08-28T03:53:41.398Z,100548.94
2022-08-28T03:55:44.551Z,100542.75
2022-08-28T03:57:47.378Z,100546.38
2022-08-28T03:59:52.600Z,100544.41
2022-08-28T04:01:55.447Z,100556.78
2022-08-28T04:03:59.346Z,100556.91
2022-08-28T04:06:02.688Z,100555.59
2022-08-28T04:08:06.075Z,100555.03
2022-08-28T04:10:12.073Z,100555.28
2022-08-28T04:12:15.357Z,100558.75
2022-08-28T04:14:18.162Z,100560.28
2022-08-28T04:16:21.125Z,100562.06
2022-08-28T04:18:24.152Z,100559.75
2022-08-28T04:20:28.032Z,100565.69
2022-08-28T04:22:31.047Z,100564.00
2022-08-28T04:24:33.874Z,100565.88
2022-08-28T04:26:38.086Z,100562.97
2022-08-28T04:28:41.412Z,100557.75
2022-08-28T04:30:44.250Z,100559.88
2022-08-28T04:32:47.104Z,100569.66
2022-08-28T04:34:49.961Z,100559.94
2022-08-28T04:36:52.855Z,100566.13
2022-08-28T04:38:56.888Z,100565.16
2022-08-28T04:41:00.156Z,100566.84
2022-08-28T04:43:04.443Z,100569.03
2022-08-28T04:45:08.483Z,100567.19
2022-08-28T04:47:11.756Z,100570.94
2022-08-28T04:49:15.160Z,100583.41
2022-08-28T04:51:18.027Z,100584.25
2022-08-28T04:53:21.396Z,100575.22
2022-08-28T04:55:27.420Z,100578.81
2022-08-28T04:57:44.288Z,100577.00
2022-08-28T04:59:48.502Z,100580.47
2022-08-28T05:01:51.850Z,100579.81
2022-08-28T05:03:57.499Z,100579.91
2022-08-28T05:06:00.681Z,100585.81
2022-08-28T05:08:03.869Z,100587.78
2022-08-28T05:10:07.622Z,100591.25
2022-08-28T05:12:15.892Z,100593.84
2022-08-28T05:14:20.070Z,100589.53
2022-08-28T05:16:24.408Z,100596.31
2022-08-28T05:18:27.280Z,100607.09
2022-08-28T05:20:30.158Z,100593.03
2022-08-28T05:22:33.820Z,100601.03
2022-08-28T05:24:37.510Z,100596.69
2022-08-28T05:26:41.602Z,100604.66
2022-08-28T05:28:45.039Z,100604.56
2022-08-28T05:30:48.207Z,100613.50
2022-08-28T05:32:52.513Z,100608.03
2022-08-28T05:34:55.901Z,100611.47
2022-08-28T05:36:58.974Z,100623.00
2022-08-28T05:39:03.970Z,100620.28
2022-08-28T05:41:07.516Z,100621.16
2022-08-28T05:43:11.044Z,100621.16
2022-08-28T05:45:13.884Z,100620.22
2022-08-28T05:47:16.708Z,100620.50
2022-08-28T05:49:26.752Z,100623.13
2022-08-28T05:51:31.580Z,100626.59
2022-08-28T05:53:35.885Z,100630.16
2022-08-28T05:55:40.925Z,100630.97
2022-08-28T05:57:43.854Z,100622.00
2022-08-28T05:59:46.724Z,100628.22
2022-08-28T06:01:50.782Z,100635.25
2022-08-28T06:03:56.902Z,100626.41
2022-08-28T06:06:01.316Z,100624.56
2022-08-28T06:08:04.511Z,100622.84
2022-08-28T06:10:07.697Z,100629.97
2022-08-28T06:12:13.682Z,100629.97
2022-08-28T06:14:20.507Z,100637.84
2022-08-28T06:16:23.437Z,100624.66
2022-08-28T06:18:26.931Z,100629.06
2022-08-28T06:20:29.960Z,100629.19
2022-08-28T06:22:34.125Z,100630.16
2022-08-28T06:24:37.360Z,100624.50
2022-08-28T06:26:41.044Z,100630.81
2022-08-28T06:28:43.934Z,100634.34
2022-08-28T06:31:08.870Z,100633.16
2022-08-28T06:33:10.864Z,100638.31
2022-08-28T06:35:13.698Z,100635.03
2022-08-28T06:37:16.597Z,100635.88
2022-08-28T06:39:21.440Z,100633.00
2022-08-28T06:41:24.838Z,100640.75
2022-08-28T06:43:29.932Z,100641.44
2022-08-28T06:45:32.909Z,100640.75
2022-08-28T06:47:35.838Z,100645.19
2022-08-28T06:49:38.679Z,100647.75
2022-08-28T06:51:41.697Z,100651.25
2022-08-28T06:53:46.882Z,100652.88
2022-08-28T06:55:59.979Z,100645.88
2022-08-28T06:58:02.935Z,100658.25
2022-08-28T07:00:07.054Z,100659.88
2022-08-28T07:02:09.970Z,100650.22
2022-08-28T07:04:14.382Z,100653.59
2022-08-28T07:06:17.834Z,100654.56
2022-08-28T07:08:20.615Z,100657.22
2022-08-28T07:10:23.504Z,100658.88
2022-08-28T07:12:27.687Z,100666.00
2022-08-28T07:14:30.480Z,100665.28
2022-08-28T07:16:37.972Z,100664.25
2022-08-28T07:18:41.601Z,100663.53
2022-08-28T07:20:44.661Z,100670.41
2022-08-28T07:22:47.557Z,100667.31
2022-08-28T07:24:57.284Z,100670.69
2022-08-28T07:27:00.129Z,100673.28
2022-08-28T07:29:11.049Z,100670.00
2022-08-28T07:31:16.797Z,100672.47
2022-08-28T07:33:19.715Z,100674.22
2022-08-28T07:35:22.744Z,100679.38
2022-08-28T07:37:25.521Z,100680.97
2022-08-28T07:39:28.323Z,100684.31
2022-08-28T07:43:52.824Z,100682.41
2022-08-28T07:46:00.273Z,100690.16
2022-08-28T07:48:09.520Z,100687.13
2022-08-28T07:50:15.117Z,100681.16
2022-08-28T07:52:18.206Z,100692.59
2022-08-28T07:54:21.137Z,100695.81
2022-08-28T07:56:24.759Z,100698.44
2022-08-28T07:58:27.685Z,100696.78
2022-08-28T08:00:30.545Z,100693.41
2022-08-28T08:02:34.979Z,100701.22
2022-08-28T08:04:37.686Z,100696.28
2022-08-28T08:06:42.108Z,100705.31
2022-08-28T08:08:45.931Z,100701.25
2022-08-28T08:10:57.306Z,100706.00
2022-08-28T08:13:00.288Z,100706.53
2022-08-28T08:15:03.229Z,100701.13
2022-08-28T08:17:07.438Z,100708.28
2022-08-28T08:19:13.932Z,100704.88
2022-08-28T08:21:19.032Z,100703.22
2022-08-28T08:23:21.835Z,100704.72
2022-08-28T08:25:24.650Z,100703.66
2022-08-28T08:27:27.641Z,100703.63
2022-08-28T08:29:32.284Z,100704.47
2022-08-28T08:31:35.416Z,100706.00
2022-08-28T08:33:41.036Z,100704.09
2022-08-28T08:35:45.280Z,100703.41
2022-08-28T08:37:48.350Z,100708.53
2022-08-28T08:39:53.416Z,100704.16
2022-08-28T08:41:59.103Z,100707.50
2022-08-28T08:44:07.415Z,100702.09
2022-08-28T08:46:10.572Z,100712.13
2022-08-28T08:48:22.423Z,100712.06
2022-08-28T08:50:29.252Z,100715.78
2022-08-28T08:52:38.355Z,100707.34
2022-08-28T08:54:42.434Z,100708.50
2022-08-28T08:56:47.213Z,100711.53
2022-08-28T08:58:53.543Z,100715.31
2022-08-28T09:01:02.576Z,100708.50
2022-08-28T09:03:10.485Z,100717.91
2022-08-28T09:05:17.645Z,100717.84
2022-08-28T09:07:24.441Z,100714.78
2022-08-28T09:09:32.196Z,100722.00
2022-08-28T09:11:45.811Z,100718.41
2022-08-28T09:13:59.251Z,100718.09
2022-08-28T09:16:07.375Z,100723.94
2022-08-28T09:18:15.341Z,100719.00
2022-08-28T09:20:29.142Z,100721.03
2022-08-28T09:22:37.241Z,100720.75
2022-08-28T09:24:42.305Z,100721.84
2022-08-28T09:26:52.850Z,100722.59
2022-08-28T09:29:05.399Z,100722.59
2022-08-28T09:31:11.647Z,100723.94
2022-08-28T09:33:14.547Z,100722.19
2022-08-28T09:35:28.175Z,100722.50
2022-08-28T09:37:32.699Z,100726.94
2022-08-28T09:39:36.660Z,100730.25
2022-08-28T09:42:06.676Z,100723.03
2022-08-28T09:44:14.879Z,100725.75
2022-08-28T09:46:24.064Z,100716.22
2022-08-28T09:48:33.955Z,100722.03
2022-08-28T09:50:39.109Z,100712.31
2022-08-28T09:52:42.254Z,100714.06
2022-08-28T09:54:46.770Z,100708.75
2022-08-28T09:56:51.660Z,100723.91
2022-08-28T09:58:59.323Z,100714.75
2022-08-28T10:01:11.254Z,100703.06
2022-08-28T10:03:19.130Z,100718.63
2022-08-28T10:05:35.828Z,100716.22
2022-08-28T10:07:46.294Z,100711.22
2022-08-28T10:09:57.530Z,100725.94
2022-08-28T10:12:15.842Z,100716.84
2022-08-28T10:14:33.967Z,100713.97
2022-08-28T10:16:47.669Z,100707.72
2022-08-28T10:18:58.028Z,100713.75
2022-08-28T10:21:10.414Z,100713.88
2022-08-28T10:23:19.773Z,100707.22
2022-08-28T10:25:31.779Z,100705.09
2022-08-28T10:27:49.539Z,100715.66
2022-08-28T10:30:05.199Z,100708.47
2022-08-28T10:32:36.226Z,100714.81
2022-08-28T10:34:55.863Z,100713.00
2022-08-28T10:37:05.638Z,100711.88
2022-08-28T10:39:22.777Z,100713.63
2022-08-28T10:41:30.998Z,100715.50
2022-08-28T10:43:39.328Z,100710.31
2022-08-28T10:45:43.548Z,100704.72
2022-08-28T10:47:52.251Z,100712.22
2022-08-28T10:50:01.835Z,100709.72
2022-08-28T10:52:09.746Z,100703.13
2022-08-28T10:54:21.213Z,100700.19
2022-08-28T10:56:28.613Z,100701.06
2022-08-28T10:58:34.985Z,100691.47
2022-08-28T11:00:43.146Z,100691.41
2022-08-28T11:02:51.374Z,100694.50
2022-08-28T11:04:58.610Z,100699.28
2022-08-28T11:07:06.563Z,100695.69
2022-08-28T11:09:27.552Z,100699.06
2022-08-28T11:11:44.983Z,100699.47
2022-08-28T11:13:56.862Z,100681.63
2022-08-28T11:16:01.449Z,100688.38
2022-08-28T11:18:31.632Z,100680.44
2022-08-28T11:20:35.009Z,100696.19
2022-08-28T11:22:43.358Z,100686.84
2022-08-28T11:24:59.162Z,100691.44
2022-08-28T11:27:17.592Z,100690.06
2022-08-28T11:29:58.841Z,100689.84
2022-08-28T11:35:01.495Z,100692.75
2022-08-28T11:37:04.380Z,100690.59
2022-08-28T11:39:20.401Z,100694.19
2022-08-28T11:41:27.366Z,100691.75
2022-08-28T11:43:37.931Z,100693.50
2022-08-28T11:46:07.401Z,100693.63
2022-08-28T11:48:30.630Z,100686.19
2022-08-28T11:50:54.454Z,100690.75
2022-08-28T11:53:25.475Z,100686.13
2022-08-28T11:55:40.920Z,100694.41
2022-08-28T12:00:09.263Z,100692.44
2022-08-28T12:02:51.992Z,100691.94
2022-08-28T12:04:54.984Z,100690.47
2022-08-28T12:07:21.911Z,100690.56
2022-08-28T12:09:41.557Z,100685.34
2022-08-28T12:12:01.841Z,100689.44
2022-08-28T12:14:04.781Z,100693.34
2022-08-28T12:16:08.520Z,100695.00
2022-08-28T12:18:17.995Z,100692.06
2022-08-28T12:20:26.296Z,100683.78
2022-08-28T12:22:47.370Z,100684.28
2022-08-28T12:24:55.599Z,100678.69
2022-08-28T12:26:58.429Z,100674.22
2022-08-28T12:29:03.804Z,100670.78
2022-08-28T12:31:57.396Z,100673.13
2022-08-28T12:34:09.654Z,100665.03
2022-08-28T12:36:18.507Z,100670.94
2022-08-28T12:38:23.305Z,100673.44
2022-08-28T12:40:29.528Z,100672.44
2022-08-28T12:42:36.389Z,100672.50
2022-08-28T12:44:39.357Z,100668.56
2022-08-28T12:46:44.462Z,100665.59
2022-08-28T12:48:52.455Z,100665.81
2022-08-28T12:51:03.142Z,100657.88
2022-08-28T12:53:11.709Z,100667.69
2022-08-28T12:55:16.358Z,100657.50
2022-08-28T12:57:22.197Z,100652.84
2022-08-28T12:59:27.558Z,100655.94
2022-08-28T13:01:35.391Z,100657.81
2022-08-28T13:03:52.177Z,100653.66
2022-08-28T13:06:02.610Z,100648.47
2022-08-28T13:08:09.566Z,100649.00
2022-08-28T13:10:21.990Z,100647.69
2022-08-28T13:12:55.359Z,100643.81
2022-08-28T13:14:52.288Z,100648.22
2022-08-28T13:16:55.186Z,100646.03
2022-08-28T13:19:13.632Z,100646.91
2022-08-28T13:21:38.155Z,100641.72
2022-08-28T13:23:41.376Z,100644.06
2022-08-28T13:25:46.017Z,100635.25
2022-08-28T13:27:57.274Z,100640.13
2022-08-28T13:30:08.356Z,100639.38
2022-08-28T13:32:18.423Z,100639.19
2022-08-28T13:34:25.849Z,100637.47
2022-08-28T13:36:42.357Z,100629.13
2022-08-28T13:38:45.247Z,100635.09
2022-08-28T13:40:57.844Z,100639.19
2022-08-28T13:43:06.900Z,100634.75
2022-08-28T13:45:10.826Z,100630.75
2022-08-28T13:47:13.906Z,100631.41
2022-08-28T13:49:16.894Z,100628.47
2022-08-28T13:51:27.681Z,100624.97
2022-08-28T13:53:30.607Z,100624.19
2022-08-28T13:55:35.125Z,100627.75
2022-08-28T13:57:39.584Z,100623.34
2022-08-28T13:59:42.684Z,100622.03
2022-08-28T14:02:03.638Z,100627.94
2022-08-28T14:04:06.521Z,100622.31
2022-08-28T14:06:12.667Z,100628.56
2022-08-28T14:08:15.525Z,100630.97
2022-08-28T14:10:18.897Z,100629.56
2022-08-28T14:12:21.799Z,100625.78
2022-08-28T14:14:36.723Z,100616.94
2022-08-28T14:16:40.337Z,100617.03
2022-08-28T14:18:43.232Z,100622.03
2022-08-28T14:20:46.163Z,100619.72
2022-08-28T14:22:49.069Z,100614.94
2022-08-28T14:24:52.101Z,100626.97
2022-08-28T14:26:55.777Z,100628.53
2022-08-28T14:28:59.888Z,100621.88
2022-08-28T14:31:11.067Z,100619.41
2022-08-28T14:33:19.293Z,100621.16
2022-08-28T14:35:24.224Z,100613.31
2022-08-28T14:37:27.095Z,100618.81
2022-08-28T14:39:30.973Z,100617.66
2022-08-28T14:41:35.171Z,100623.69
2022-08-28T14:43:38.262Z,100619.56
2022-08-28T14:45:45.783Z,100614.97
2022-08-28T14:47:50.030Z,100607.66
2022-08-28T14:49:53.031Z,100604.72
2022-08-28T14:51:57.393Z,100604.13
2022-08-28T14:54:00.725Z,100603.25
2022-08-28T14:56:07.528Z,100605.22
2022-08-28T14:58:10.414Z,100602.81
2022-08-28T15:00:16.223Z,100598.63
2022-08-28T15:02:19.288Z,100602.31
2022-08-28T15:04:24.553Z,100607.19
2022-08-28T15:06:28.451Z,100598.09
2022-08-28T15:08:31.809Z,100595.28
2022-08-28T15:10:35.263Z,100591.75
2022-08-28T15:12:39.085Z,100591.38
2022-08-28T15:14:54.598Z,100592.63
2022-08-28T15:17:00.349Z,100597.31
2022-08-28T15:19:04.180Z,100590.25
2022-08-28T15:21:15.606Z,100595.41
2022-08-28T15:23:18.429Z,100592.84
2022-08-28T15:25:21.477Z,100592.63
2022-08-28T15:27:24.730Z,100598.47
2022-08-28T15:29:28.248Z,100591.47
2022-08-28T15:31:32.146Z,100589.94
2022-08-28T15:33:35.030Z,100592.38
2022-08-28T15:35:38.337Z,100592.31
2022-08-28T15:37:42.594Z,100588.91
2022-08-28T15:43:14.033Z,100585.56
2022-08-28T15:45:17.193Z,100588.75
2022-08-28T15:47:20.100Z,100593.38
2022-08-28T15:49:24.234Z,100593.88
2022-08-28T15:51:27.629Z,100587.59
2022-08-28T15:53:33.656Z,100587.41
2022-08-28T15:55:36.791Z,100579.41
2022-08-28T15:57:39.827Z,100586.47
2022-08-28T15:59:49.602Z,100585.38
2022-08-28T16:01:55.901Z,100581.72
2022-08-28T16:03:58.759Z,100583.59
2022-08-28T16:06:01.945Z,100584.91
2022-08-28T16:08:05.158Z,100580.75
2022-08-28T16:10:13.349Z,100583.38
2022-08-28T16:12:16.366Z,100587.13
2022-08-28T16:14:21.048Z,100582.38
2022-08-28T16:16:24.368Z,100586.47
2022-08-28T16:18:29.145Z,100585.84
2022-08-28T16:20:32.415Z,100586.59
2022-08-28T16:22:35.365Z,100583.03
2022-08-28T16:24:38.505Z,100586.31
2022-08-28T16:26:42.892Z,100587.34
2022-08-28T16:28:45.748Z,100584.84
2022-08-28T16:30:48.922Z,100588.22
2022-08-28T16:32:51.793Z,100589.06
2022-08-28T16:34:57.088Z,100583.88
2022-08-28T16:37:00.504Z,100587.16
2022-08-28T16:39:04.012Z,100598.31
2022-08-28T16:41:11.956Z,100591.81
2022-08-28T16:43:16.763Z,100580.75
2022-08-28T16:45:20.393Z,100592.47
2022-08-28T16:47:23.317Z,100596.00
2022-08-28T16:49:26.590Z,100585.25
2022-08-28T16:51:29.711Z,100583.19
2022-08-28T16:53:32.951Z,100580.03
2022-08-28T16:55:36.989Z,100578.03
2022-08-28T16:57:40.152Z,100584.81
2022-08-28T16:59:44.381Z,100584.09
2022-08-28T17:01:47.400Z,100583.88
2022-08-28T17:03:56.369Z,100589.13
2022-08-28T17:06:03.486Z,100586.00
2022-08-28T17:08:06.693Z,100586.13
2022-08-28T17:10:13.110Z,100589.69
2022-08-28T17:12:16.653Z,100586.44
2022-08-28T17:14:20.187Z,100581.28
2022-08-28T17:16:25.850Z,100575.78
2022-08-28T17:18:28.805Z,100589.84
2022-08-28T17:20:49.149Z,100591.34
2022-08-28T17:22:52.137Z,100589.19
2022-08-28T17:24:55.163Z,100590.69
2022-08-28T17:27:01.993Z,100590.50
2022-08-28T17:29:07.856Z,100591.66
2022-08-28T17:31:11.525Z,100592.81
2022-08-28T17:33:15.774Z,100589.38
2022-08-28T17:35:18.505Z,100591.50
2022-08-28T17:37:21.658Z,100595.56
2022-08-28T17:39:25.177Z,100590.66
2022-08-28T17:41:28.336Z,100588.91
2022-08-28T17:43:31.153Z,100593.47
2022-08-28T17:45:33.913Z,100602.00
2022-08-28T17:47:36.736Z,100602.97
2022-08-28T17:49:41.380Z,100602.16
2022-08-28T17:51:44.552Z,100605.84
2022-08-28T17:53:47.465Z,100614.44
2022-08-28T17:55:50.502Z,100613.91
2022-08-28T17:57:53.314Z,100610.59
2022-08-28T17:59:56.227Z,100606.34
2022-08-28T18:01:59.142Z,100618.44
2022-08-28T18:04:02.124Z,100611.28
2022-08-28T18:06:06.713Z,100614.19
2022-08-28T18:08:10.222Z,100618.06
2022-08-28T18:10:13.480Z,100619.72
2022-08-28T18:12:16.615Z,100619.88
2022-08-28T18:14:19.594Z,100619.94
2022-08-28T18:16:26.482Z,100620.88
2022-08-28T18:18:36.596Z,100624.91
2022-08-28T18:20:39.908Z,100624.34
2022-08-28T18:22:44.328Z,100626.25
2022-08-28T18:24:52.378Z,100629.75
2022-08-28T18:26:55.757Z,100630.66
2022-08-28T18:28:59.376Z,100635.06
2022-08-28T18:31:03.633Z,100640.25
2022-08-28T18:33:06.885Z,100634.25
2022-08-28T18:35:09.924Z,100643.84
2022-08-28T18:37:13.221Z,100638.72
2022-08-28T18:39:29.152Z,100641.47
2022-08-28T18:41:43.423Z,100646.03
2022-08-28T18:43:47.459Z,100646.19
2022-08-28T18:45:51.339Z,100647.91
2022-08-28T18:47:54.465Z,100649.75
2022-08-28T18:49:57.449Z,100648.91
2022-08-28T18:52:00.540Z,100650.66
2022-08-28T18:54:04.079Z,100659.03
2022-08-28T18:56:09.226Z,100658.75
2022-08-28T18:58:15.736Z,100657.81
2022-08-28T19:00:19.130Z,100663.94
2022-08-28T19:02:22.362Z,100657.75
2022-08-28T19:04:25.512Z,100674.53
2022-08-28T19:06:28.768Z,100669.28
2022-08-28T19:08:32.785Z,100674.72
2022-08-28T19:10:36.896Z,100680.97
2022-08-28T19:12:42.619Z,100674.84
2022-08-28T19:14:45.595Z,100673.97
2022-08-28T19:16:48.648Z,100680.44
2022-08-28T19:18:55.608Z,100685.75
2022-08-28T19:21:05.192Z,100678.81
2022-08-28T19:23:08.357Z,100679.97
2022-08-28T19:25:27.786Z,100691.53
2022-08-28T19:27:31.718Z,100690.94
2022-08-28T19:29:36.546Z,100696.19
2022-08-28T19:31:39.775Z,100691.06
2022-08-28T19:33:42.851Z,100695.38
2022-08-28T19:35:45.827Z,100697.19
2022-08-28T19:37:50.259Z,100692.88
2022-08-28T19:39:56.111Z,100701.75
2022-08-28T19:42:00.900Z,100696.72
2022-08-28T19:44:04.186Z,100707.97
2022-08-28T19:46:11.175Z,100712.09
2022-08-28T19:48:21.713Z,100709.31
2022-08-28T19:50:24.721Z,100713.06
2022-08-28T19:52:27.823Z,100706.13
2022-08-28T19:54:30.781Z,100715.00
2022-08-28T19:56:35.043Z,100712.41
2022-08-28T19:58:38.409Z,100721.91
2022-08-28T20:00:41.400Z,100720.97
2022-08-28T20:02:46.385Z,100718.38
2022-08-28T20:04:49.475Z,100729.94
2022-08-28T20:06:52.859Z,100722.38
2022-08-28T20:08:56.019Z,100726.50
2022-08-28T20:10:59.419Z,100726.44
2022-08-28T20:13:02.761Z,100722.28
2022-08-28T20:15:06.783Z,100718.84
2022-08-28T20:17:09.797Z,100718.13
2022-08-28T20:19:14.899Z,100722.72
2022-08-28T20:21:18.660Z,100717.59
2022-08-28T20:23:29.241Z,100722.94
2022-08-28T20:25:34.851Z,100725.69
2022-08-28T20:27:37.898Z,100720.44
2022-08-28T20:29:41.143Z,100722.19
2022-08-28T20:31:47.176Z,100722.31
2022-08-28T20:33:50.996Z,100723.50
2022-08-28T20:36:01.736Z,100722.44
2022-08-28T20:38:04.839Z,100724.13
2022-08-28T20:40:09.933Z,100728.34
2022-08-28T20:42:13.680Z,100722.97
2022-08-28T20:44:19.061Z,100729.91
2022-08-28T20:46:22.205Z,100731.84
2022-08-28T20:48:25.381Z,100731.84
2022-08-28T20:50:28.305Z,100735.28
2022-08-28T20:52:32.750Z,100734.44
2022-08-28T20:54:38.426Z,100739.94
2022-08-28T20:56:41.919Z,100742.59
2022-08-28T20:58:44.898Z,100742.69
2022-08-28T21:00:47.880Z,100740.13
2022-08-28T21:03:43.331Z,100745.63
2022-08-28T21:05:49.089Z,100753.56
2022-08-28T21:07:53.428Z,100748.97
2022-08-28T21:10:07.166Z,100745.63
2022-08-28T21:12:10.970Z,100751.97
2022-08-28T21:14:14.155Z,100747.66
2022-08-28T21:16:17.174Z,100755.72
2022-08-28T21:18:20.225Z,100758.28
2022-08-28T21:20:23.839Z,100754.25
2022-08-28T21:22:29.668Z,100758.09
2022-08-28T21:24:34.047Z,100759.22
2022-08-28T21:26:37.861Z,100756.22
2022-08-28T21:28:41.183Z,100760.53
2022-08-28T21:30:44.262Z,100757.94
2022-08-28T21:32:48.993Z,100764.13
2022-08-28T21:34:55.114Z,100766.84
2022-08-28T21:36:58.039Z,100765.16
2022-08-28T21:39:01.022Z,100770.72
2022-08-28T21:41:06.557Z,100774.34
2022-08-28T21:43:09.556Z,100769.84
2022-08-28T21:45:13.346Z,100775.31
2022-08-28T21:47:16.261Z,100777.09
2022-08-28T21:49:19.286Z,100781.03
2022-08-28T21:51:22.266Z,100785.72
2022-08-28T21:53:26.682Z,100786.41
2022-08-28T21:55:29.593Z,100792.88
2022-08-28T21:57:34.477Z,100786.63
2022-08-28T21:59:37.707Z,100784.13
2022-08-28T22:01:41.109Z,100787.94
2022-08-28T22:03:44.958Z,100791.75
2022-08-28T22:05:50.482Z,100789.88
2022-08-28T22:07:53.356Z,100788.19
2022-08-28T22:09:56.862Z,100793.50
2022-08-28T22:12:00.438Z,100795.31
2022-08-28T22:14:04.809Z,100797.16
2022-08-28T22:16:08.518Z,100797.94
2022-08-28T22:18:13.791Z,100797.03
2022-08-28T22:20:17.005Z,100792.53
2022-08-28T22:22:37.389Z,100794.94
2022-08-28T22:24:40.289Z,100799.16
2022-08-28T22:26:45.899Z,100801.16
2022-08-28T22:28:49.630Z,100796.94
2022-08-28T22:30:54.023Z,100807.50
2022-08-28T22:32:58.669Z,100806.66
2022-08-28T22:35:01.636Z,100806.78
2022-08-28T22:37:04.614Z,100804.03
2022-08-28T22:39:07.525Z,100809.59
2022-08-28T22:41:10.573Z,100798.28
2022-08-28T22:43:13.534Z,100795.78
2022-08-28T22:45:16.668Z,100790.59
2022-08-28T22:47:20.988Z,100794.13
2022-08-28T22:49:23.831Z,100801.97
2022-08-28T22:51:26.634Z,100808.09
2022-08-28T22:53:29.607Z,100811.09
2022-08-28T22:55:33.059Z,100805.00
2022-08-28T22:57:35.914Z,100810.44
2022-08-28T22:59:39.617Z,100808.78
2022-08-28T23:01:43.324Z,100809.78
2022-08-28T23:03:49.040Z,100807.03
2022-08-28T23:05:52.535Z,100814.06
2022-08-28T23:07:55.573Z,100811.59
2022-08-28T23:09:58.379Z,100804.38
2022-08-28T23:12:01.449Z,100806.13
2022-08-28T23:14:04.530Z,100814.13
2022-08-28T23:16:10.243Z,100805.41
2022-08-28T23:18:13.311Z,100813.31
2022-08-28T23:20:20.498Z,100816.00
2022-08-28T23:22:23.365Z,100811.81
2022-08-28T23:24:26.348Z,100816.22
2022-08-28T23:26:29.177Z,100812.00
2022-08-28T23:28:31.996Z,100813.88
2022-08-28T23:30:34.962Z,100811.25
2022-08-28T23:32:38.194Z,100809.53
2022-08-28T23:34:42.135Z,100816.97
2022-08-28T23:36:46.394Z,100812.47
2022-08-28T23:38:49.241Z,100807.31
2022-08-28T23:40:55.014Z,100807.31
2022-08-28T23:42:58.019Z,100806.56
2022-08-28T23:45:02.025Z,100813.72
2022-08-28T23:47:07.931Z,100807.56
2022-08-28T23:49:11.867Z,100804.84
2022-08-28T23:51:15.731Z,100807.25
2022-08-28T23:53:20.417Z,100803.69
2022-08-28T23:55:23.865Z,100812.19
2022-08-28T23:57:30.662Z,100811.38
2022-08-28T23:59:33.574Z,100808.88
